sensor_id;sensor_type;location;lat;lon;timestamp;P1;durP1;ratioP1;P2;durP2;ratioP2
67108;SDS011;54027;50.786;7.058;2023-04-24T00:00:13;0.82;;;0.60;;
67108;SDS011;54027;50.786;7.058;2023-04-24T00:02:40;1.15;;;0.80;;
67108;SDS011;54027;50.786;7.058;2023-04-24T00:05:10;1.50;;;0.80;;
67108;SDS011;54027;50.786;7.058;2023-04-24T00:07:35;1.90;;;0.90;;
67108;SDS011;54027;50.786;7.058;2023-04-24T00:10:01;1.08;;;0.82;;
67108;SDS011;54027;50.786;7.058;2023-04-24T00:12:26;1.02;;;0.70;;
67108;SDS011;54027;50.786;7.058;2023-04-24T00:14:52;1.02;;;0.90;;
67108;SDS011;54027;50.786;7.058;2023-04-24T00:17:18;2.30;;;0.75;;
67108;SDS011;54027;50.786;7.058;2023-04-24T00:19:45;0.98;;;0.70;;
67108;SDS011;54027;50.786;7.058;2023-04-24T00:22:10;2.33;;;0.77;;
67108;SDS011;54027;50.786;7.058;2023-04-24T00:24:38;0.90;;;0.70;;
67108;SDS011;54027;50.786;7.058;2023-04-24T00:27:03;2.33;;;0.73;;
67108;SDS011;54027;50.786;7.058;2023-04-24T00:29:29;2.38;;;0.70;;
67108;SDS011;54027;50.786;7.058;2023-04-24T00:31:54;0.75;;;0.52;;
67108;SDS011;54027;50.786;7.058;2023-04-24T00:34:20;0.70;;;0.60;;
67108;SDS011;54027;50.786;7.058;2023-04-24T00:36:45;0.80;;;0.70;;
67108;SDS011;54027;50.786;7.058;2023-04-24T00:39:11;1.38;;;0.60;;
67108;SDS011;54027;50.786;7.058;2023-04-24T00:41:36;1.35;;;0.60;;
67108;SDS011;54027;50.786;7.058;2023-04-24T00:44:02;1.13;;;0.80;;
67108;SDS011;54027;50.786;7.058;2023-04-24T00:46:27;1.00;;;0.57;;
67108;SDS011;54027;50.786;7.058;2023-04-24T00:48:53;0.80;;;0.57;;
67108;SDS011;54027;50.786;7.058;2023-04-24T00:51:21;0.90;;;0.65;;
67108;SDS011;54027;50.786;7.058;2023-04-24T00:53:46;1.48;;;0.63;;
67108;SDS011;54027;50.786;7.058;2023-04-24T00:56:11;1.83;;;0.63;;
67108;SDS011;54027;50.786;7.058;2023-04-24T00:58:37;1.23;;;0.75;;
67108;SDS011;54027;50.786;7.058;2023-04-24T01:01:03;0.77;;;0.63;;
67108;SDS011;54027;50.786;7.058;2023-04-24T01:03:31;0.77;;;0.60;;
67108;SDS011;54027;50.786;7.058;2023-04-24T01:05:58;0.50;;;0.50;;
67108;SDS011;54027;50.786;7.058;2023-04-24T01:08:24;3.33;;;0.95;;
67108;SDS011;54027;50.786;7.058;2023-04-24T01:10:51;0.70;;;0.50;;
67108;SDS011;54027;50.786;7.058;2023-04-24T01:13:17;0.70;;;0.47;;
67108;SDS011;54027;50.786;7.058;2023-04-24T01:15:44;1.13;;;0.40;;
67108;SDS011;54027;50.786;7.058;2023-04-24T01:18:09;2.85;;;0.60;;
67108;SDS011;54027;50.786;7.058;2023-04-24T01:20:35;1.70;;;0.50;;
67108;SDS011;54027;50.786;7.058;2023-04-24T01:23:05;1.15;;;0.90;;
67108;SDS011;54027;50.786;7.058;2023-04-24T01:25:31;1.05;;;0.90;;
67108;SDS011;54027;50.786;7.058;2023-04-24T01:27:57;1.50;;;0.88;;
67108;SDS011;54027;50.786;7.058;2023-04-24T01:30:22;2.55;;;0.82;;
67108;SDS011;54027;50.786;7.058;2023-04-24T01:32:48;1.70;;;0.82;;
67108;SDS011;54027;50.786;7.058;2023-04-24T01:35:14;1.73;;;1.00;;
67108;SDS011;54027;50.786;7.058;2023-04-24T01:37:39;1.45;;;1.13;;
67108;SDS011;54027;50.786;7.058;2023-04-24T01:40:06;3.05;;;1.20;;
67108;SDS011;54027;50.786;7.058;2023-04-24T01:42:32;1.88;;;1.20;;
67108;SDS011;54027;50.786;7.058;2023-04-24T01:44:57;2.00;;;1.48;;
67108;SDS011;54027;50.786;7.058;2023-04-24T01:47:24;1.88;;;1.30;;
67108;SDS011;54027;50.786;7.058;2023-04-24T01:49:49;7.03;;;1.77;;
67108;SDS011;54027;50.786;7.058;2023-04-24T01:52:15;3.80;;;1.50;;
67108;SDS011;54027;50.786;7.058;2023-04-24T01:54:42;1.38;;;1.10;;
67108;SDS011;54027;50.786;7.058;2023-04-24T01:57:08;3.10;;;1.40;;
67108;SDS011;54027;50.786;7.058;2023-04-24T01:59:33;3.17;;;2.10;;
67108;SDS011;54027;50.786;7.058;2023-04-24T02:01:59;2.63;;;1.50;;
67108;SDS011;54027;50.786;7.058;2023-04-24T02:04:25;2.67;;;1.30;;
67108;SDS011;54027;50.786;7.058;2023-04-24T02:06:50;2.58;;;1.30;;
67108;SDS011;54027;50.786;7.058;2023-04-24T02:09:16;3.33;;;1.67;;
67108;SDS011;54027;50.786;7.058;2023-04-24T02:11:41;3.47;;;1.67;;
67108;SDS011;54027;50.786;7.058;2023-04-24T02:14:06;4.50;;;1.58;;
67108;SDS011;54027;50.786;7.058;2023-04-24T02:16:32;4.32;;;1.80;;
67108;SDS011;54027;50.786;7.058;2023-04-24T02:18:58;3.22;;;1.92;;
67108;SDS011;54027;50.786;7.058;2023-04-24T02:21:24;3.85;;;1.77;;
67108;SDS011;54027;50.786;7.058;2023-04-24T02:23:50;4.00;;;2.17;;
67108;SDS011;54027;50.786;7.058;2023-04-24T02:26:15;2.85;;;2.13;;
67108;SDS011;54027;50.786;7.058;2023-04-24T02:28:41;4.15;;;3.30;;
67108;SDS011;54027;50.786;7.058;2023-04-24T02:31:06;6.15;;;3.30;;
67108;SDS011;54027;50.786;7.058;2023-04-24T02:33:32;5.00;;;3.78;;
67108;SDS011;54027;50.786;7.058;2023-04-24T02:35:57;5.63;;;4.22;;
67108;SDS011;54027;50.786;7.058;2023-04-24T02:38:23;7.15;;;4.00;;
67108;SDS011;54027;50.786;7.058;2023-04-24T02:40:48;6.93;;;3.88;;
67108;SDS011;54027;50.786;7.058;2023-04-24T02:43:13;6.00;;;3.80;;
67108;SDS011;54027;50.786;7.058;2023-04-24T02:45:39;6.68;;;4.25;;
67108;SDS011;54027;50.786;7.058;2023-04-24T02:48:04;7.00;;;3.70;;
67108;SDS011;54027;50.786;7.058;2023-04-24T02:50:30;5.82;;;3.90;;
67108;SDS011;54027;50.786;7.058;2023-04-24T02:52:55;6.47;;;4.28;;
67108;SDS011;54027;50.786;7.058;2023-04-24T02:55:20;6.53;;;3.95;;
67108;SDS011;54027;50.786;7.058;2023-04-24T02:57:46;6.82;;;3.75;;
67108;SDS011;54027;50.786;7.058;2023-04-24T03:00:11;7.57;;;4.25;;
67108;SDS011;54027;50.786;7.058;2023-04-24T03:02:38;6.93;;;4.40;;
67108;SDS011;54027;50.786;7.058;2023-04-24T03:05:03;7.45;;;4.22;;
67108;SDS011;54027;50.786;7.058;2023-04-24T03:07:29;8.75;;;4.53;;
67108;SDS011;54027;50.786;7.058;2023-04-24T03:09:56;5.55;;;4.20;;
67108;SDS011;54027;50.786;7.058;2023-04-24T03:12:23;7.30;;;4.93;;
67108;SDS011;54027;50.786;7.058;2023-04-24T03:14:48;6.47;;;4.10;;
67108;SDS011;54027;50.786;7.058;2023-04-24T03:17:14;4.70;;;3.58;;
67108;SDS011;54027;50.786;7.058;2023-04-24T03:19:39;5.25;;;3.92;;
67108;SDS011;54027;50.786;7.058;2023-04-24T03:22:05;5.45;;;3.90;;
67108;SDS011;54027;50.786;7.058;2023-04-24T03:24:31;6.82;;;4.55;;
67108;SDS011;54027;50.786;7.058;2023-04-24T03:26:56;9.23;;;4.40;;
67108;SDS011;54027;50.786;7.058;2023-04-24T03:29:22;6.57;;;3.83;;
67108;SDS011;54027;50.786;7.058;2023-04-24T03:31:47;5.28;;;3.60;;
67108;SDS011;54027;50.786;7.058;2023-04-24T03:34:12;8.30;;;4.90;;
67108;SDS011;54027;50.786;7.058;2023-04-24T03:36:38;6.15;;;3.75;;
67108;SDS011;54027;50.786;7.058;2023-04-24T03:39:03;5.32;;;3.60;;
67108;SDS011;54027;50.786;7.058;2023-04-24T03:41:29;6.45;;;4.20;;
67108;SDS011;54027;50.786;7.058;2023-04-24T03:43:55;9.20;;;3.67;;
67108;SDS011;54027;50.786;7.058;2023-04-24T03:46:21;4.57;;;3.75;;
67108;SDS011;54027;50.786;7.058;2023-04-24T03:48:46;6.28;;;4.50;;
67108;SDS011;54027;50.786;7.058;2023-04-24T03:51:12;5.18;;;3.95;;
67108;SDS011;54027;50.786;7.058;2023-04-24T03:53:37;5.07;;;4.10;;
67108;SDS011;54027;50.786;7.058;2023-04-24T03:56:03;7.55;;;4.38;;
67108;SDS011;54027;50.786;7.058;2023-04-24T03:58:28;7.10;;;4.70;;
67108;SDS011;54027;50.786;7.058;2023-04-24T04:00:53;8.13;;;4.63;;
67108;SDS011;54027;50.786;7.058;2023-04-24T04:03:19;6.03;;;4.20;;
67108;SDS011;54027;50.786;7.058;2023-04-24T04:05:44;7.22;;;3.90;;
67108;SDS011;54027;50.786;7.058;2023-04-24T04:08:10;5.43;;;4.50;;
67108;SDS011;54027;50.786;7.058;2023-04-24T04:10:35;5.95;;;4.40;;
67108;SDS011;54027;50.786;7.058;2023-04-24T04:13:01;6.05;;;4.60;;
67108;SDS011;54027;50.786;7.058;2023-04-24T04:15:26;6.13;;;4.63;;
67108;SDS011;54027;50.786;7.058;2023-04-24T04:17:51;7.32;;;4.63;;
67108;SDS011;54027;50.786;7.058;2023-04-24T04:20:17;6.82;;;4.68;;
67108;SDS011;54027;50.786;7.058;2023-04-24T04:22:42;10.63;;;5.10;;
67108;SDS011;54027;50.786;7.058;2023-04-24T04:25:08;6.63;;;5.03;;
67108;SDS011;54027;50.786;7.058;2023-04-24T04:27:34;7.32;;;4.57;;
67108;SDS011;54027;50.786;7.058;2023-04-24T04:30:03;7.57;;;5.30;;
67108;SDS011;54027;50.786;7.058;2023-04-24T04:32:32;8.18;;;4.85;;
67108;SDS011;54027;50.786;7.058;2023-04-24T04:35:00;8.10;;;5.07;;
67108;SDS011;54027;50.786;7.058;2023-04-24T04:37:30;6.80;;;5.00;;
67108;SDS011;54027;50.786;7.058;2023-04-24T04:39:56;6.88;;;4.65;;
67108;SDS011;54027;50.786;7.058;2023-04-24T04:42:23;7.53;;;4.68;;
67108;SDS011;54027;50.786;7.058;2023-04-24T04:44:49;8.32;;;5.53;;
67108;SDS011;54027;50.786;7.058;2023-04-24T04:47:15;7.40;;;5.05;;
67108;SDS011;54027;50.786;7.058;2023-04-24T04:49:42;7.65;;;5.10;;
67108;SDS011;54027;50.786;7.058;2023-04-24T04:52:08;8.07;;;5.10;;
67108;SDS011;54027;50.786;7.058;2023-04-24T04:54:34;5.60;;;4.90;;
67108;SDS011;54027;50.786;7.058;2023-04-24T04:57:00;8.07;;;4.82;;
67108;SDS011;54027;50.786;7.058;2023-04-24T04:59:26;6.43;;;4.78;;
67108;SDS011;54027;50.786;7.058;2023-04-24T05:01:52;6.88;;;4.80;;
67108;SDS011;54027;50.786;7.058;2023-04-24T05:04:18;6.15;;;4.57;;
67108;SDS011;54027;50.786;7.058;2023-04-24T05:06:43;4.80;;;4.30;;
67108;SDS011;54027;50.786;7.058;2023-04-24T05:09:08;6.20;;;5.03;;
67108;SDS011;54027;50.786;7.058;2023-04-24T05:11:34;7.22;;;4.90;;
67108;SDS011;54027;50.786;7.058;2023-04-24T05:13:59;6.00;;;4.60;;
67108;SDS011;54027;50.786;7.058;2023-04-24T05:16:25;7.50;;;4.75;;
67108;SDS011;54027;50.786;7.058;2023-04-24T05:18:50;8.30;;;5.13;;
67108;SDS011;54027;50.786;7.058;2023-04-24T05:21:16;8.93;;;5.00;;
67108;SDS011;54027;50.786;7.058;2023-04-24T05:23:41;8.05;;;4.70;;
67108;SDS011;54027;50.786;7.058;2023-04-24T05:26:07;7.10;;;4.68;;
67108;SDS011;54027;50.786;7.058;2023-04-24T05:28:32;7.28;;;4.80;;
67108;SDS011;54027;50.786;7.058;2023-04-24T05:30:57;8.07;;;4.90;;
67108;SDS011;54027;50.786;7.058;2023-04-24T05:33:24;6.13;;;5.03;;
67108;SDS011;54027;50.786;7.058;2023-04-24T05:35:49;10.10;;;4.88;;
67108;SDS011;54027;50.786;7.058;2023-04-24T05:38:15;7.53;;;4.57;;
67108;SDS011;54027;50.786;7.058;2023-04-24T05:40:42;10.45;;;5.00;;
67108;SDS011;54027;50.786;7.058;2023-04-24T05:43:08;7.18;;;5.07;;
67108;SDS011;54027;50.786;7.058;2023-04-24T05:45:33;7.80;;;4.70;;
67108;SDS011;54027;50.786;7.058;2023-04-24T05:48:00;8.13;;;5.00;;
67108;SDS011;54027;50.786;7.058;2023-04-24T05:50:26;9.68;;;5.03;;
67108;SDS011;54027;50.786;7.058;2023-04-24T05:52:52;5.70;;;4.47;;
67108;SDS011;54027;50.786;7.058;2023-04-24T05:55:18;6.68;;;4.75;;
67108;SDS011;54027;50.786;7.058;2023-04-24T05:57:43;8.73;;;5.45;;
67108;SDS011;54027;50.786;7.058;2023-04-24T06:00:09;7.45;;;4.72;;
67108;SDS011;54027;50.786;7.058;2023-04-24T06:02:37;6.60;;;3.85;;
67108;SDS011;54027;50.786;7.058;2023-04-24T06:05:02;6.65;;;4.82;;
67108;SDS011;54027;50.786;7.058;2023-04-24T06:07:29;6.30;;;4.40;;
67108;SDS011;54027;50.786;7.058;2023-04-24T06:09:55;7.65;;;5.00;;
67108;SDS011;54027;50.786;7.058;2023-04-24T06:12:21;6.78;;;4.70;;
67108;SDS011;54027;50.786;7.058;2023-04-24T06:14:47;7.30;;;4.80;;
67108;SDS011;54027;50.786;7.058;2023-04-24T06:17:12;9.27;;;4.68;;
67108;SDS011;54027;50.786;7.058;2023-04-24T06:19:37;8.35;;;5.88;;
67108;SDS011;54027;50.786;7.058;2023-04-24T06:22:03;9.25;;;4.35;;
67108;SDS011;54027;50.786;7.058;2023-04-24T06:24:28;6.57;;;4.40;;
67108;SDS011;54027;50.786;7.058;2023-04-24T06:26:54;10.80;;;4.78;;
67108;SDS011;54027;50.786;7.058;2023-04-24T06:29:20;7.53;;;4.82;;
67108;SDS011;54027;50.786;7.058;2023-04-24T06:31:45;12.15;;;5.47;;
67108;SDS011;54027;50.786;7.058;2023-04-24T06:34:10;7.53;;;4.90;;
67108;SDS011;54027;50.786;7.058;2023-04-24T06:36:36;9.82;;;4.93;;
67108;SDS011;54027;50.786;7.058;2023-04-24T06:39:01;8.02;;;4.75;;
67108;SDS011;54027;50.786;7.058;2023-04-24T06:41:27;6.13;;;4.22;;
67108;SDS011;54027;50.786;7.058;2023-04-24T06:43:53;6.28;;;4.00;;
67108;SDS011;54027;50.786;7.058;2023-04-24T06:46:18;6.63;;;4.30;;
67108;SDS011;54027;50.786;7.058;2023-04-24T06:48:47;7.80;;;4.13;;
67108;SDS011;54027;50.786;7.058;2023-04-24T06:51:12;6.80;;;4.57;;
67108;SDS011;54027;50.786;7.058;2023-04-24T06:53:37;9.90;;;4.03;;
67108;SDS011;54027;50.786;7.058;2023-04-24T06:56:03;4.43;;;3.22;;
67108;SDS011;54027;50.786;7.058;2023-04-24T06:58:29;6.95;;;3.03;;
67108;SDS011;54027;50.786;7.058;2023-04-24T07:00:55;3.90;;;2.83;;
67108;SDS011;54027;50.786;7.058;2023-04-24T07:03:20;4.43;;;3.03;;
67108;SDS011;54027;50.786;7.058;2023-04-24T07:05:46;3.90;;;2.53;;
67108;SDS011;54027;50.786;7.058;2023-04-24T07:08:12;3.25;;;2.50;;
67108;SDS011;54027;50.786;7.058;2023-04-24T07:10:38;3.70;;;2.65;;
67108;SDS011;54027;50.786;7.058;2023-04-24T07:13:04;4.65;;;2.40;;
67108;SDS011;54027;50.786;7.058;2023-04-24T07:15:29;3.42;;;2.60;;
67108;SDS011;54027;50.786;7.058;2023-04-24T07:17:55;4.03;;;2.45;;
67108;SDS011;54027;50.786;7.058;2023-04-24T07:20:21;3.38;;;2.20;;
67108;SDS011;54027;50.786;7.058;2023-04-24T07:22:46;3.20;;;1.85;;
67108;SDS011;54027;50.786;7.058;2023-04-24T07:25:13;2.70;;;1.98;;
67108;SDS011;54027;50.786;7.058;2023-04-24T07:27:38;1.98;;;1.50;;
67108;SDS011;54027;50.786;7.058;2023-04-24T07:30:04;2.30;;;1.67;;
67108;SDS011;54027;50.786;7.058;2023-04-24T07:32:29;4.53;;;1.60;;
67108;SDS011;54027;50.786;7.058;2023-04-24T07:34:55;3.67;;;1.80;;
67108;SDS011;54027;50.786;7.058;2023-04-24T07:37:20;3.03;;;1.40;;
67108;SDS011;54027;50.786;7.058;2023-04-24T07:39:46;2.08;;;1.48;;
67108;SDS011;54027;50.786;7.058;2023-04-24T07:42:11;3.65;;;1.80;;
67108;SDS011;54027;50.786;7.058;2023-04-24T07:44:37;1.90;;;1.70;;
67108;SDS011;54027;50.786;7.058;2023-04-24T07:47:02;3.08;;;1.70;;
67108;SDS011;54027;50.786;7.058;2023-04-24T07:49:27;2.03;;;1.52;;
67108;SDS011;54027;50.786;7.058;2023-04-24T07:51:53;3.35;;;1.88;;
67108;SDS011;54027;50.786;7.058;2023-04-24T07:54:18;2.33;;;1.77;;
67108;SDS011;54027;50.786;7.058;2023-04-24T07:56:44;2.13;;;1.50;;
67108;SDS011;54027;50.786;7.058;2023-04-24T07:59:10;4.55;;;1.70;;
67108;SDS011;54027;50.786;7.058;2023-04-24T08:01:36;2.47;;;1.83;;
67108;SDS011;54027;50.786;7.058;2023-04-24T08:04:02;3.35;;;1.67;;
67108;SDS011;54027;50.786;7.058;2023-04-24T08:06:27;2.40;;;1.38;;
67108;SDS011;54027;50.786;7.058;2023-04-24T08:08:55;2.42;;;1.45;;
67108;SDS011;54027;50.786;7.058;2023-04-24T08:11:21;2.83;;;1.33;;
67108;SDS011;54027;50.786;7.058;2023-04-24T08:13:46;1.60;;;1.10;;
67108;SDS011;54027;50.786;7.058;2023-04-24T08:16:12;1.40;;;1.17;;
67108;SDS011;54027;50.786;7.058;2023-04-24T08:18:37;1.95;;;1.25;;
67108;SDS011;54027;50.786;7.058;2023-04-24T08:21:03;2.25;;;1.45;;
67108;SDS011;54027;50.786;7.058;2023-04-24T08:23:28;3.80;;;1.33;;
67108;SDS011;54027;50.786;7.058;2023-04-24T08:25:54;2.28;;;1.50;;
67108;SDS011;54027;50.786;7.058;2023-04-24T08:28:20;2.78;;;1.35;;
67108;SDS011;54027;50.786;7.058;2023-04-24T08:30:46;2.85;;;1.52;;
67108;SDS011;54027;50.786;7.058;2023-04-24T08:33:12;2.45;;;1.75;;
67108;SDS011;54027;50.786;7.058;2023-04-24T08:35:38;2.70;;;1.90;;
67108;SDS011;54027;50.786;7.058;2023-04-24T08:38:04;4.32;;;1.88;;
67108;SDS011;54027;50.786;7.058;2023-04-24T08:40:29;4.50;;;1.73;;
67108;SDS011;54027;50.786;7.058;2023-04-24T08:42:58;6.30;;;2.05;;
67108;SDS011;54027;50.786;7.058;2023-04-24T08:45:24;3.05;;;1.50;;
67108;SDS011;54027;50.786;7.058;2023-04-24T08:47:51;2.35;;;1.27;;
67108;SDS011;54027;50.786;7.058;2023-04-24T08:50:18;3.30;;;1.35;;
67108;SDS011;54027;50.786;7.058;2023-04-24T08:52:44;3.08;;;1.50;;
67108;SDS011;54027;50.786;7.058;2023-04-24T08:55:09;2.42;;;1.92;;
67108;SDS011;54027;50.786;7.058;2023-04-24T08:57:35;6.30;;;1.80;;
67108;SDS011;54027;50.786;7.058;2023-04-24T09:00:03;7.55;;;2.17;;
67108;SDS011;54027;50.786;7.058;2023-04-24T09:02:29;4.55;;;2.50;;
67108;SDS011;54027;50.786;7.058;2023-04-24T09:04:57;3.10;;;2.10;;
67108;SDS011;54027;50.786;7.058;2023-04-24T09:07:22;3.10;;;2.20;;
67108;SDS011;54027;50.786;7.058;2023-04-24T09:09:51;6.05;;;2.58;;
67108;SDS011;54027;50.786;7.058;2023-04-24T09:12:17;5.80;;;2.97;;
67108;SDS011;54027;50.786;7.058;2023-04-24T09:14:42;4.50;;;3.22;;
67108;SDS011;54027;50.786;7.058;2023-04-24T09:17:10;6.97;;;3.47;;
67108;SDS011;54027;50.786;7.058;2023-04-24T09:19:36;7.60;;;3.88;;
67108;SDS011;54027;50.786;7.058;2023-04-24T09:22:08;6.88;;;3.80;;
67108;SDS011;54027;50.786;7.058;2023-04-24T09:24:34;8.85;;;4.38;;
67108;SDS011;54027;50.786;7.058;2023-04-24T09:27:00;7.20;;;4.28;;
67108;SDS011;54027;50.786;7.058;2023-04-24T09:29:29;7.22;;;3.90;;
67108;SDS011;54027;50.786;7.058;2023-04-24T09:31:54;8.18;;;4.70;;
67108;SDS011;54027;50.786;7.058;2023-04-24T09:34:24;5.63;;;4.25;;
67108;SDS011;54027;50.786;7.058;2023-04-24T09:36:52;8.38;;;4.32;;
67108;SDS011;54027;50.786;7.058;2023-04-24T09:39:19;8.00;;;4.07;;
67108;SDS011;54027;50.786;7.058;2023-04-24T09:41:51;6.53;;;4.68;;
67108;SDS011;54027;50.786;7.058;2023-04-24T09:44:19;8.02;;;4.72;;
67108;SDS011;54027;50.786;7.058;2023-04-24T09:46:53;7.88;;;4.53;;
67108;SDS011;54027;50.786;7.058;2023-04-24T09:49:24;4.95;;;3.65;;
67108;SDS011;54027;50.786;7.058;2023-04-24T09:51:51;6.72;;;4.25;;
67108;SDS011;54027;50.786;7.058;2023-04-24T09:54:17;8.63;;;5.00;;
67108;SDS011;54027;50.786;7.058;2023-04-24T09:56:46;7.00;;;3.80;;
67108;SDS011;54027;50.786;7.058;2023-04-24T09:59:13;5.80;;;3.92;;
67108;SDS011;54027;50.786;7.058;2023-04-24T10:01:40;10.68;;;4.80;;
67108;SDS011;54027;50.786;7.058;2023-04-24T10:04:19;8.82;;;4.60;;
67108;SDS011;54027;50.786;7.058;2023-04-24T10:06:45;7.10;;;4.38;;
67108;SDS011;54027;50.786;7.058;2023-04-24T10:09:11;8.63;;;4.15;;
67108;SDS011;54027;50.786;7.058;2023-04-24T10:11:40;10.38;;;4.90;;
67108;SDS011;54027;50.786;7.058;2023-04-24T10:14:09;8.25;;;5.03;;
67108;SDS011;54027;50.786;7.058;2023-04-24T10:16:37;8.10;;;3.72;;
67108;SDS011;54027;50.786;7.058;2023-04-24T10:19:04;6.95;;;3.88;;
67108;SDS011;54027;50.786;7.058;2023-04-24T10:21:30;10.23;;;3.63;;
67108;SDS011;54027;50.786;7.058;2023-04-24T10:23:56;5.85;;;3.30;;
67108;SDS011;54027;50.786;7.058;2023-04-24T10:26:22;6.97;;;3.72;;
67108;SDS011;54027;50.786;7.058;2023-04-24T10:28:48;7.20;;;3.80;;
67108;SDS011;54027;50.786;7.058;2023-04-24T10:31:16;5.57;;;4.13;;
67108;SDS011;54027;50.786;7.058;2023-04-24T10:33:43;6.82;;;3.88;;
67108;SDS011;54027;50.786;7.058;2023-04-24T10:36:10;7.35;;;4.10;;
67108;SDS011;54027;50.786;7.058;2023-04-24T10:38:39;7.45;;;4.03;;
67108;SDS011;54027;50.786;7.058;2023-04-24T10:41:10;6.97;;;3.45;;
67108;SDS011;54027;50.786;7.058;2023-04-24T10:43:41;8.07;;;4.50;;
67108;SDS011;54027;50.786;7.058;2023-04-24T10:46:07;9.50;;;4.95;;
67108;SDS011;54027;50.786;7.058;2023-04-24T10:48:35;7.75;;;3.78;;
67108;SDS011;54027;50.786;7.058;2023-04-24T10:51:10;7.22;;;3.85;;
67108;SDS011;54027;50.786;7.058;2023-04-24T10:53:37;9.52;;;4.40;;
67108;SDS011;54027;50.786;7.058;2023-04-24T10:56:04;11.40;;;4.68;;
67108;SDS011;54027;50.786;7.058;2023-04-24T11:03:51;9.45;;;5.13;;
67108;SDS011;54027;50.786;7.058;2023-04-24T11:06:28;10.90;;;4.93;;
67108;SDS011;54027;50.786;7.058;2023-04-24T11:09:01;9.27;;;4.43;;
67108;SDS011;54027;50.786;7.058;2023-04-24T11:11:31;11.70;;;4.60;;
67108;SDS011;54027;50.786;7.058;2023-04-24T11:21:33;11.70;;;5.93;;
67108;SDS011;54027;50.786;7.058;2023-04-24T11:27:13;15.13;;;7.35;;
67108;SDS011;54027;50.786;7.058;2023-04-24T11:32:24;13.02;;;8.18;;
67108;SDS011;54027;50.786;7.058;2023-04-24T11:34:50;15.75;;;6.95;;
67108;SDS011;54027;50.786;7.058;2023-04-24T11:37:27;12.98;;;7.72;;
67108;SDS011;54027;50.786;7.058;2023-04-24T11:39:56;9.02;;;6.40;;
67108;SDS011;54027;50.786;7.058;2023-04-24T11:42:23;13.13;;;5.63;;
67108;SDS011;54027;50.786;7.058;2023-04-24T11:44:51;13.65;;;6.15;;
67108;SDS011;54027;50.786;7.058;2023-04-24T11:47:18;9.90;;;6.25;;
67108;SDS011;54027;50.786;7.058;2023-04-24T11:49:43;13.27;;;6.25;;
67108;SDS011;54027;50.786;7.058;2023-04-24T11:52:08;11.80;;;6.20;;
67108;SDS011;54027;50.786;7.058;2023-04-24T11:54:35;13.88;;;7.20;;
67108;SDS011;54027;50.786;7.058;2023-04-24T11:57:03;11.65;;;5.70;;
67108;SDS011;54027;50.786;7.058;2023-04-24T11:59:34;12.07;;;5.18;;
67108;SDS011;54027;50.786;7.058;2023-04-24T12:02:00;12.02;;;4.97;;
67108;SDS011;54027;50.786;7.058;2023-04-24T12:04:26;14.05;;;5.72;;
67108;SDS011;54027;50.786;7.058;2023-04-24T12:07:03;13.93;;;5.55;;
67108;SDS011;54027;50.786;7.058;2023-04-24T12:12:09;13.75;;;5.45;;
67108;SDS011;54027;50.786;7.058;2023-04-24T12:14:55;14.05;;;5.90;;
67108;SDS011;54027;50.786;7.058;2023-04-24T12:17:26;12.80;;;5.22;;
67108;SDS011;54027;50.786;7.058;2023-04-24T12:19:57;12.02;;;6.07;;
67108;SDS011;54027;50.786;7.058;2023-04-24T12:22:25;12.48;;;5.43;;
67108;SDS011;54027;50.786;7.058;2023-04-24T12:24:57;11.88;;;5.95;;
67108;SDS011;54027;50.786;7.058;2023-04-24T12:27:23;14.18;;;5.80;;
67108;SDS011;54027;50.786;7.058;2023-04-24T12:29:52;17.23;;;6.72;;
67108;SDS011;54027;50.786;7.058;2023-04-24T12:32:21;12.07;;;6.13;;
67108;SDS011;54027;50.786;7.058;2023-04-24T12:34:47;12.95;;;5.45;;
67108;SDS011;54027;50.786;7.058;2023-04-24T12:37:12;11.88;;;5.43;;
67108;SDS011;54027;50.786;7.058;2023-04-24T12:39:37;12.57;;;5.65;;
67108;SDS011;54027;50.786;7.058;2023-04-24T12:42:03;12.65;;;6.38;;
67108;SDS011;54027;50.786;7.058;2023-04-24T12:44:30;13.23;;;6.68;;
67108;SDS011;54027;50.786;7.058;2023-04-24T12:47:00;12.10;;;6.32;;
67108;SDS011;54027;50.786;7.058;2023-04-24T12:49:26;12.88;;;6.90;;
67108;SDS011;54027;50.786;7.058;2023-04-24T12:51:52;10.60;;;6.38;;
67108;SDS011;54027;50.786;7.058;2023-04-24T12:54:18;12.32;;;6.03;;
67108;SDS011;54027;50.786;7.058;2023-04-24T12:56:43;14.57;;;6.00;;
67108;SDS011;54027;50.786;7.058;2023-04-24T12:59:08;11.48;;;6.57;;
67108;SDS011;54027;50.786;7.058;2023-04-24T13:01:34;10.43;;;5.45;;
67108;SDS011;54027;50.786;7.058;2023-04-24T13:03:59;14.43;;;6.32;;
67108;SDS011;54027;50.786;7.058;2023-04-24T13:06:25;14.05;;;5.28;;
67108;SDS011;54027;50.786;7.058;2023-04-24T13:08:51;13.98;;;4.95;;
67108;SDS011;54027;50.786;7.058;2023-04-24T13:11:16;11.68;;;6.00;;
67108;SDS011;54027;50.786;7.058;2023-04-24T13:13:42;10.02;;;5.45;;
67108;SDS011;54027;50.786;7.058;2023-04-24T13:16:08;11.20;;;4.90;;
67108;SDS011;54027;50.786;7.058;2023-04-24T13:18:33;8.55;;;4.97;;
67108;SDS011;54027;50.786;7.058;2023-04-24T13:20:58;11.93;;;5.22;;
67108;SDS011;54027;50.786;7.058;2023-04-24T13:23:24;9.95;;;4.85;;
67108;SDS011;54027;50.786;7.058;2023-04-24T13:25:49;9.23;;;4.93;;
67108;SDS011;54027;50.786;7.058;2023-04-24T13:28:15;12.82;;;5.35;;
67108;SDS011;54027;50.786;7.058;2023-04-24T13:30:40;11.50;;;5.25;;
67108;SDS011;54027;50.786;7.058;2023-04-24T13:33:06;10.50;;;5.15;;
67108;SDS011;54027;50.786;7.058;2023-04-24T13:35:31;11.02;;;4.55;;
67108;SDS011;54027;50.786;7.058;2023-04-24T13:37:57;7.38;;;4.63;;
67108;SDS011;54027;50.786;7.058;2023-04-24T13:40:23;9.05;;;4.60;;
67108;SDS011;54027;50.786;7.058;2023-04-24T13:42:48;9.95;;;5.82;;
67108;SDS011;54027;50.786;7.058;2023-04-24T13:45:14;9.15;;;4.95;;
67108;SDS011;54027;50.786;7.058;2023-04-24T13:47:40;16.50;;;5.10;;
67108;SDS011;54027;50.786;7.058;2023-04-24T13:50:08;13.20;;;5.72;;
67108;SDS011;54027;50.786;7.058;2023-04-24T13:52:34;11.15;;;4.90;;
67108;SDS011;54027;50.786;7.058;2023-04-24T13:55:00;9.85;;;5.43;;
67108;SDS011;54027;50.786;7.058;2023-04-24T13:57:25;11.20;;;5.75;;
67108;SDS011;54027;50.786;7.058;2023-04-24T13:59:51;17.65;;;5.30;;
67108;SDS011;54027;50.786;7.058;2023-04-24T14:02:17;8.23;;;4.90;;
67108;SDS011;54027;50.786;7.058;2023-04-24T14:04:42;11.30;;;5.50;;
67108;SDS011;54027;50.786;7.058;2023-04-24T14:07:07;12.18;;;5.55;;
67108;SDS011;54027;50.786;7.058;2023-04-24T14:09:33;11.40;;;4.70;;
67108;SDS011;54027;50.786;7.058;2023-04-24T14:11:59;11.00;;;5.22;;
67108;SDS011;54027;50.786;7.058;2023-04-24T14:14:26;13.90;;;6.20;;
67108;SDS011;54027;50.786;7.058;2023-04-24T14:16:51;12.25;;;5.75;;
67108;SDS011;54027;50.786;7.058;2023-04-24T14:19:17;12.65;;;4.90;;
67108;SDS011;54027;50.786;7.058;2023-04-24T14:21:42;8.50;;;5.00;;
67108;SDS011;54027;50.786;7.058;2023-04-24T14:24:08;11.05;;;5.07;;
67108;SDS011;54027;50.786;7.058;2023-04-24T14:26:34;9.77;;;4.78;;
67108;SDS011;54027;50.786;7.058;2023-04-24T14:28:59;8.18;;;4.78;;
67108;SDS011;54027;50.786;7.058;2023-04-24T14:31:25;14.63;;;5.90;;
67108;SDS011;54027;50.786;7.058;2023-04-24T14:33:50;12.18;;;5.95;;
67108;SDS011;54027;50.786;7.058;2023-04-24T14:36:15;12.05;;;5.88;;
67108;SDS011;54027;50.786;7.058;2023-04-24T14:38:41;11.32;;;5.13;;
67108;SDS011;54027;50.786;7.058;2023-04-24T14:41:07;10.48;;;5.00;;
67108;SDS011;54027;50.786;7.058;2023-04-24T14:43:35;11.32;;;5.03;;
67108;SDS011;54027;50.786;7.058;2023-04-24T14:46:01;11.80;;;5.20;;
67108;SDS011;54027;50.786;7.058;2023-04-24T14:48:27;10.48;;;4.97;;
67108;SDS011;54027;50.786;7.058;2023-04-24T14:50:52;14.25;;;6.15;;
67108;SDS011;54027;50.786;7.058;2023-04-24T14:53:18;8.98;;;4.43;;
67108;SDS011;54027;50.786;7.058;2023-04-24T14:55:43;10.02;;;4.47;;
67108;SDS011;54027;50.786;7.058;2023-04-24T14:58:09;8.00;;;5.05;;
67108;SDS011;54027;50.786;7.058;2023-04-24T15:00:35;8.38;;;4.18;;